Time;durP1;ratioP1;P1;durP2;ratioP2;P2;SDS_P1;SDS_P2;PMS_P1;PMS_P2;Temp;Humidity;BMP_temperature;BMP_pressure;BME280_temperature;BME280_humidity;BME280_pressure;Samples;Min_cycle;Max_cycle;Signal;HPM_P1;HPM_P2
2022/08/08 00:08:49;;;;;;;2.30;1.13;;;20.80;46.80;;;;;;20918521;28;20222;-73
2022/08/08 00:19:09;;;;;;;2.17;1.30;;;20.70;46.80;;;;;;20917456;28;20203;-71
2022/08/08 00:29:24;;;;;;;1.50;1.40;;;20.50;48.50;;;;;;20914276;28;20706;-73
2022/08/08 00:40:23;;;;;;;3.50;1.30;;;20.40;50.60;;;;;;20917316;28;20719;-72
2022/08/08 00:51:06;;;;;;;1.47;1.20;;;20.20;51.30;;;;;;20915152;28;20261;-72
2022/08/08 01:01:16;;;;;;;1.83;1.30;;;20.10;51.10;;;;;;20897170;28;20213;-72
2022/08/08 01:12:26;;;;;;;7.10;1.57;;;20.00;50.30;;;;;;20913665;28;20233;-74
2022/08/08 01:23:00;;;;;;;3.67;1.47;;;19.90;51.00;;;;;;20913532;28;20221;-70
2022/08/08 01:33:41;;;;;;;5.50;1.70;;;19.70;51.60;;;;;;20873604;28;20260;-70
2022/08/08 01:44:29;;;;;;;3.63;1.40;;;19.60;52.10;;;;;;20912638;28;20700;-69
2022/08/08 01:54:57;;;;;;;3.10;1.30;;;19.40;52.60;;;;;;20911718;28;20586;-71
2022/08/08 02:05:51;;;;;;;3.30;1.43;;;19.20;53.40;;;;;;20912420;28;20214;-71
2022/08/08 02:16:10;;;;;;;1.83;1.30;;;19.10;53.50;;;;;;20916663;28;20702;-74
2022/08/08 02:26:34;;;;;;;2.40;1.20;;;18.90;53.20;;;;;;20924503;28;20208;-70
2022/08/08 02:36:50;;;;;;;1.80;1.20;;;18.70;53.10;;;;;;20924861;28;20236;-71
2022/08/08 02:47:31;;;;;;;3.43;1.27;;;18.60;53.50;;;;;;20925720;28;20609;-70
2022/08/08 02:57:54;;;;;;;3.77;1.30;;;18.40;52.90;;;;;;20924488;28;20238;-70
2022/08/08 03:08:40;;;;;;;2.20;1.30;;;18.30;52.90;;;;;;20923589;28;20211;-70
2022/08/08 03:18:52;;;;;;;2.87;1.30;;;18.10;53.20;;;;;;20922950;28;20299;-68
2022/08/08 03:29:01;;;;;;;3.93;1.40;;;17.90;53.50;;;;;;20921092;28;20234;-69
2022/08/08 03:39:04;;;;;;;3.73;1.30;;;17.70;53.50;;;;;;20903890;28;20247;-72
2022/08/08 03:49:19;;;;;;;3.97;1.20;;;17.80;54.00;;;;;;20920234;28;20240;-73
2022/08/08 03:59:41;;;;;;;2.70;1.37;;;17.60;54.20;;;;;;20921223;28;20269;-70
2022/08/08 04:10:03;;;;;;;1.37;1.20;;;;;;;;;;20918625;28;20240;-71
2022/08/08 04:20:07;;;;;;;1.70;1.30;;;17.50;54.50;;;;;;20926757;28;20238;-71
2022/08/08 04:30:11;;;;;;;1.57;1.30;;;17.60;54.50;;;;;;20997087;28;20242;-70
2022/08/08 04:40:20;;;;;;;2.53;1.50;;;17.60;55.00;;;;;;20997782;28;20206;-70
2022/08/08 04:50:25;;;;;;;2.07;1.60;;;17.60;54.60;;;;;;20995080;28;20326;-72
2022/08/08 05:00:39;;;;;;;5.73;1.63;;;17.60;55.00;;;;;;20994306;28;20243;-72
2022/08/08 05:10:41;;;;;;;10.27;1.90;;;17.60;55.40;;;;;;20996407;28;20237;-72
2022/08/08 05:20:45;;;;;;;9.03;2.20;;;17.60;55.50;;;;;;20996034;28;20567;-70
2022/08/08 05:30:52;;;;;;;30.43;3.20;;;17.70;55.70;;;;;;20994005;28;20242;-71
2022/08/08 05:41:03;;;;;;;14.87;2.80;;;17.80;55.60;;;;;;20993521;28;20206;-69
2022/08/08 05:51:05;;;;;;;9.53;2.40;;;18.10;55.60;;;;;;21000200;28;20243;-71
2022/08/08 06:01:17;;;;;;;18.70;2.70;;;18.30;55.20;;;;;;21010619;28;20214;-71
2022/08/08 06:11:39;;;;;;;4.37;2.13;;;18.70;54.90;;;;;;21009949;28;20232;-73
2022/08/08 06:21:48;;;;;;;8.07;2.13;;;19.00;54.30;;;;;;20987288;28;20289;-70
2022/08/08 06:32:03;;;;;;;7.30;1.83;;;19.20;53.30;;;;;;20921080;28;20604;-74
2022/08/08 06:42:13;;;;;;;6.33;1.60;;;19.60;52.60;;;;;;20924281;28;20272;-72
2022/08/08 06:52:16;;;;;;;8.97;1.53;;;20.00;51.80;;;;;;20923336;28;20237;-71
2022/08/08 07:02:27;;;;;;;6.00;1.57;;;20.30;51.10;;;;;;20920953;28;20762;-69
2022/08/08 07:12:44;;;;;;;4.73;1.60;;;20.60;50.80;;;;;;20959926;28;20239;-68
2022/08/08 07:23:04;;;;;;;2.77;1.20;;;21.00;50.30;;;;;;20985468;28;20290;-69
2022/08/08 07:33:07;;;;;;;5.97;1.60;;;21.40;49.90;;;;;;20914445;28;20455;-69
2022/08/08 07:43:11;;;;;;;6.50;1.53;;;22.00;49.40;;;;;;20929040;28;20282;-72
2022/08/08 07:53:26;;;;;;;8.07;1.67;;;22.10;49.30;;;;;;20997885;28;20242;-71
2022/08/08 08:03:54;;;;;;;9.03;1.67;;;22.30;49.00;;;;;;21001079;28;20276;-71
2022/08/08 08:14:01;;;;;;;7.00;1.70;;;22.60;48.70;;;;;;20998663;28;20242;-72
2022/08/08 08:24:11;;;;;;;1.80;1.47;;;22.80;48.60;;;;;;20997323;28;20211;-71
2022/08/08 08:34:13;;;;;;;5.97;1.40;;;23.10;48.30;;;;;;20997346;28;20241;-73
2022/08/08 08:44:16;;;;;;;3.17;1.50;;;23.30;47.80;;;;;;20959205;28;20671;-72
2022/08/08 08:54:22;;;;;;;5.70;1.80;;;23.50;47.30;;;;;;20978561;28;20243;-72
2022/08/08 09:04:31;;;;;;;4.60;2.90;;;23.70;46.60;;;;;;20925344;28;20325;-72
2022/08/08 09:14:44;;;;;;;2.67;1.40;;;23.90;45.90;;;;;;20912726;28;20302;-72
2022/08/08 09:24:52;;;;;;;2.50;1.40;;;24.20;45.70;;;;;;20911851;28;20286;-73
2022/08/08 09:34:56;;;;;;;2.73;1.43;;;24.40;45.20;;;;;;20911588;28;20707;-72
2022/08/08 09:45:09;;;;;;;3.30;1.57;;;24.60;44.80;;;;;;20910809;28;20696;-72
2022/08/08 09:55:31;;;;;;;3.33;1.10;;;24.80;44.50;;;;;;20910002;28;20270;-71
2022/08/08 10:05:52;;;;;;;2.03;1.30;;;24.90;44.00;;;;;;20910976;28;20200;-74
2022/08/08 10:15:55;;;;;;;3.07;1.20;;;25.10;44.10;;;;;;20909162;28;20232;-72
2022/08/08 10:26:02;;;;;;;1.87;1.27;;;25.20;43.70;;;;;;20909564;28;20237;-71
2022/08/08 10:36:04;;;;;;;3.97;1.30;;;25.40;43.20;;;;;;20912398;28;20648;-71
2022/08/08 10:46:27;;;;;;;4.10;1.43;;;25.50;43.20;;;;;;20912766;28;20260;-71
2022/08/08 10:56:34;;;;;;;4.17;1.40;;;25.50;42.20;;;;;;20843082;28;20597;-71
2022/08/08 11:06:37;;;;;;;5.23;1.00;;;25.60;42.30;;;;;;20840315;28;20550;-70
2022/08/08 11:16:44;;;;;;;3.93;1.50;;;25.70;41.80;;;;;;20839381;28;20236;-69
2022/08/08 11:26:48;;;;;;;2.73;1.30;;;25.80;41.80;;;;;;20838836;28;20201;-73
2022/08/08 11:36:59;;;;;;;4.67;1.20;;;25.90;41.40;;;;;;20872599;28;20258;-70
2022/08/08 11:47:16;;;;;;;1.77;1.33;;;26.00;40.00;;;;;;20937761;28;20275;-69
2022/08/08 11:57:25;;;;;;;2.57;2.10;;;26.30;39.40;;;;;;21001377;28;20241;-70
2022/08/08 12:07:42;;;;;;;3.00;1.10;;;26.50;38.60;;;;;;20998886;28;20207;-68
2022/08/08 12:17:43;;;;;;;2.37;1.10;;;26.80;38.10;;;;;;20995697;28;20721;-69
2022/08/08 12:28:07;;;;;;;2.37;1.40;;;27.20;37.80;;;;;;20992685;28;20702;-69
2022/08/08 12:38:16;;;;;;;1.90;1.20;;;27.40;37.30;;;;;;20985365;28;20234;-70
2022/08/08 12:48:24;;;;;;;1.83;1.20;;;27.60;37.00;;;;;;20996543;28;20257;-70
2022/08/08 12:58:44;;;;;;;2.53;0.97;;;27.70;36.70;;;;;;20980671;28;20245;-69
2022/08/08 13:08:49;;;;;;;3.23;1.77;;;27.70;36.10;;;;;;21012834;28;20710;-73
2022/08/08 13:18:57;;;;;;;1.10;1.00;;;27.60;36.20;;;;;;20995636;28;20229;-76
2022/08/08 13:29:11;;;;;;;2.40;1.23;;;27.60;36.10;;;;;;20995628;28;20584;-72
2022/08/08 13:39:16;;;;;;;2.70;1.00;;;27.70;36.00;;;;;;20994715;28;20239;-74
2022/08/08 13:49:18;;;;;;;2.97;1.00;;;27.60;35.90;;;;;;20994206;28;20239;-71
2022/08/08 13:59:43;;;;;;;2.30;1.15;;;27.70;35.80;;;;;;20980676;28;20551;-77
2022/08/08 14:09:50;;;;;;;2.00;1.80;;;27.80;35.60;;;;;;20994233;28;20237;-73
2022/08/08 14:20:12;;;;;;;1.80;1.00;;;27.80;35.80;;;;;;21008362;28;20215;-66
2022/08/08 14:30:34;;;;;;;2.67;1.13;;;28.00;35.70;;;;;;21009843;28;20690;-69
2022/08/08 14:40:40;;;;;;;3.78;1.00;;;28.10;35.40;;;;;;20926542;28;20593;-68
2022/08/08 14:50:46;;;;;;;5.70;1.20;;;28.50;35.00;;;;;;20922716;28;20235;-69
2022/08/08 15:00:48;;;;;;;1.33;1.23;;;28.40;35.10;;;;;;20933964;28;20212;-68
2022/08/08 15:10:50;;;;;;;1.17;0.90;;;29.70;34.10;;;;;;20989626;28;20231;-68
2022/08/08 15:20:52;;;;;;;1.85;1.27;;;28.90;34.50;;;;;;20956123;28;20295;-68
2022/08/08 15:30:54;;;;;;;3.85;1.35;;;29.00;34.40;;;;;;20921736;28;20326;-69
2022/08/08 15:40:56;;;;;;;3.72;1.02;;;28.50;34.80;;;;;;20922733;28;20290;-69
2022/08/08 15:51:00;;;;;;;2.33;1.20;;;28.30;35.60;;;;;;20922408;28;20254;-69
2022/08/08 16:01:06;;;;;;;1.80;1.10;;;28.10;35.30;;;;;;20919370;28;20243;-67
2022/08/08 16:11:08;;;;;;;1.80;1.20;;;27.90;35.50;;;;;;20917482;28;20263;-68
2022/08/08 16:21:32;;;;;;;3.13;1.17;;;27.80;35.70;;;;;;20918691;28;20215;-76
2022/08/08 16:31:35;;;;;;;3.65;2.70;;;27.70;35.80;;;;;;20984402;28;20238;-73
2022/08/08 16:41:38;;;;;;;3.17;1.20;;;27.60;35.80;;;;;;20921107;28;20290;-73
2022/08/08 16:51:43;;;;;;;2.97;1.17;;;27.60;35.60;;;;;;20915267;28;20247;-69
2022/08/08 17:02:11;;;;;;;4.03;1.20;;;27.50;35.60;;;;;;20918592;28;20575;-69
2022/08/08 17:12:33;;;;;;;3.93;1.63;;;27.40;35.80;;;;;;20915676;28;20239;-69
2022/08/08 17:22:37;;;;;;;1.43;1.10;;;27.40;35.80;;;;;;20913638;28;20266;-68
2022/08/08 17:32:43;;;;;;;2.80;1.10;;;27.30;36.60;;;;;;20913205;28;20235;-68
2022/08/08 17:43:05;;;;;;;1.67;0.97;;;27.20;36.00;;;;;;20945730;28;20203;-69
2022/08/08 17:53:12;;;;;;;1.97;1.60;;;27.10;36.00;;;;;;20906960;28;20248;-69
2022/08/08 18:03:14;;;;;;;1.57;1.10;;;27.00;36.00;;;;;;20909089;28;20212;-69
2022/08/08 18:13:19;;;;;;;11.03;1.33;;;26.80;36.20;;;;;;20912752;28;20246;-70
2022/08/08 18:23:22;;;;;;;4.50;1.37;;;26.70;36.50;;;;;;20911683;28;20208;-70
2022/08/08 18:33:24;;;;;;;3.17;1.20;;;26.60;36.90;;;;;;20911166;28;20236;-70
2022/08/08 18:43:46;;;;;;;8.60;1.47;;;26.40;37.20;;;;;;20912860;28;20694;-72
2022/08/08 18:53:48;;;;;;;1.47;1.27;;;26.30;37.90;;;;;;20910801;28;20247;-74
2022/08/08 19:04:07;;;;;;;9.10;2.00;;;26.00;38.80;;;;;;20922951;28;20250;-72
2022/08/08 19:14:13;;;;;;;6.57;1.50;;;25.80;39.60;;;;;;20925857;28;20598;-73
2022/08/08 19:24:21;;;;;;;4.73;1.70;;;25.60;40.40;;;;;;20918734;28;20219;-72
2022/08/08 19:34:43;;;;;;;6.20;1.83;;;25.30;41.20;;;;;;20920079;28;20289;-71
2022/08/08 19:44:45;;;;;;;8.13;1.60;;;25.10;41.40;;;;;;20930292;28;20208;-71
2022/08/08 19:54:51;;;;;;;1.70;1.33;;;25.00;41.50;;;;;;20976240;28;20231;-70
2022/08/08 20:05:03;;;;;;;4.87;1.63;;;24.70;42.70;;;;;;20963952;28;20203;-69
2022/08/08 20:15:07;;;;;;;8.63;1.53;;;24.60;43.00;;;;;;20923485;28;20238;-69
2022/08/08 20:25:17;;;;;;;9.07;1.50;;;24.40;43.00;;;;;;20956213;28;20221;-72
2022/08/08 20:35:21;;;;;;;3.47;1.53;;;24.40;42.80;;;;;;21000268;28;20241;-73
2022/08/08 20:45:33;;;;;;;2.97;1.87;;;24.30;42.80;;;;;;21044314;28;20326;-73
2022/08/08 20:55:54;;;;;;;6.20;1.90;;;24.20;42.80;;;;;;21075574;28;20449;-72
2022/08/08 21:05:56;;;;;;;4.73;1.77;;;24.50;43.10;;;;;;21071634;28;20202;-73
2022/08/08 21:16:01;;;;;;;6.07;1.60;;;24.10;43.60;;;;;;20997976;28;20234;-72
2022/08/08 21:26:18;;;;;;;4.00;1.90;;;23.90;43.50;;;;;;20996011;28;20211;-71
2022/08/08 21:36:27;;;;;;;4.77;1.90;;;23.80;44.00;;;;;;20996352;28;20270;-72
2022/08/08 21:46:30;;;;;;;4.70;1.90;;;23.70;44.20;;;;;;20995893;28;20321;-71
2022/08/08 21:56:51;;;;;;;3.57;1.80;;;23.60;44.40;;;;;;20995898;28;20231;-71
2022/08/08 22:06:53;;;;;;;7.20;2.10;;;23.50;44.50;;;;;;20995354;28;20207;-72
2022/08/08 22:16:55;;;;;;;7.93;1.90;;;23.30;44.60;;;;;;20983180;28;20231;-72
2022/08/08 22:27:02;;;;;;;6.17;2.03;;;23.10;44.90;;;;;;20990184;28;20580;-72
2022/08/08 22:37:04;;;;;;;3.33;1.77;;;23.00;45.10;;;;;;20987329;28;20322;-72
2022/08/08 22:47:06;;;;;;;2.97;1.90;;;22.90;45.30;;;;;;21009292;28;20600;-71
2022/08/08 22:57:19;;;;;;;2.43;2.00;;;22.80;45.60;;;;;;21008760;28;20234;-70
2022/08/08 23:07:25;;;;;;;5.60;1.70;;;22.70;45.90;;;;;;20990009;28;20199;-71
2022/08/08 23:17:48;;;;;;;3.17;1.90;;;22.70;46.00;;;;;;21006684;28;20234;-71
2022/08/08 23:27:58;;;;;;;3.63;1.80;;;22.50;46.40;;;;;;21006678;28;20215;-72
2022/08/08 23:38:01;;;;;;;2.97;1.90;;;22.50;46.60;;;;;;21005340;28;20595;-71
2022/08/08 23:48:04;;;;;;;2.80;2.10;;;22.40;46.40;;;;;;20986392;28;20227;-72
2022/08/08 23:58:26;;;;;;;2.80;2.00;;;22.30;46.40;;;;;;21004390;28;20265;-71
